sensor_id;sensor_type;location;lat;lon;timestamp;P1;durP1;ratioP1;P2;durP2;ratioP2
45434;SDS011;31183;47.404;8.500;2023-11-19T00:01:05;2.95;;;2.22;;
45434;SDS011;31183;47.404;8.500;2023-11-19T00:03:32;2.95;;;2.45;;
45434;SDS011;31183;47.404;8.500;2023-11-19T00:05:59;3.33;;;2.40;;
45434;SDS011;31183;47.404;8.500;2023-11-19T00:08:26;4.30;;;2.58;;
45434;SDS011;31183;47.404;8.500;2023-11-19T00:10:53;4.78;;;2.42;;
45434;SDS011;31183;47.404;8.500;2023-11-19T00:13:19;3.92;;;2.47;;
45434;SDS011;31183;47.404;8.500;2023-11-19T00:15:46;3.20;;;2.47;;
45434;SDS011;31183;47.404;8.500;2023-11-19T00:18:13;2.50;;;2.30;;
45434;SDS011;31183;47.404;8.500;2023-11-19T00:20:40;3.17;;;2.38;;
45434;SDS011;31183;47.404;8.500;2023-11-19T00:23:07;4.05;;;2.22;;
45434;SDS011;31183;47.404;8.500;2023-11-19T00:25:34;5.57;;;3.38;;
45434;SDS011;31183;47.404;8.500;2023-11-19T00:28:01;6.25;;;3.42;;
45434;SDS011;31183;47.404;8.500;2023-11-19T00:30:27;5.22;;;3.20;;
45434;SDS011;31183;47.404;8.500;2023-11-19T00:32:54;8.48;;;4.35;;
45434;SDS011;31183;47.404;8.500;2023-11-19T00:35:21;7.47;;;2.97;;
45434;SDS011;31183;47.404;8.500;2023-11-19T00:37:47;5.60;;;3.05;;
45434;SDS011;31183;47.404;8.500;2023-11-19T00:40:15;5.22;;;2.95;;
45434;SDS011;31183;47.404;8.500;2023-11-19T00:42:43;5.70;;;3.50;;
45434;SDS011;31183;47.404;8.500;2023-11-19T00:45:10;4.30;;;3.22;;
45434;SDS011;31183;47.404;8.500;2023-11-19T00:47:38;3.75;;;2.83;;
45434;SDS011;31183;47.404;8.500;2023-11-19T00:50:06;4.88;;;3.00;;
45434;SDS011;31183;47.404;8.500;2023-11-19T00:52:35;3.78;;;3.40;;
45434;SDS011;31183;47.404;8.500;2023-11-19T00:55:03;3.22;;;2.92;;
45434;SDS011;31183;47.404;8.500;2023-11-19T00:57:31;2.70;;;2.15;;
45434;SDS011;31183;47.404;8.500;2023-11-19T00:59:59;3.17;;;2.58;;
45434;SDS011;31183;47.404;8.500;2023-11-19T01:02:26;2.65;;;2.35;;
45434;SDS011;31183;47.404;8.500;2023-11-19T01:04:53;2.92;;;1.98;;
45434;SDS011;31183;47.404;8.500;2023-11-19T01:07:20;2.78;;;1.90;;
45434;SDS011;31183;47.404;8.500;2023-11-19T01:09:48;2.13;;;1.70;;
45434;SDS011;31183;47.404;8.500;2023-11-19T01:12:14;2.85;;;2.30;;
45434;SDS011;31183;47.404;8.500;2023-11-19T01:14:41;4.13;;;2.25;;
45434;SDS011;31183;47.404;8.500;2023-11-19T01:17:08;3.78;;;1.75;;
45434;SDS011;31183;47.404;8.500;2023-11-19T01:19:35;2.42;;;2.00;;
45434;SDS011;31183;47.404;8.500;2023-11-19T01:22:02;3.38;;;2.08;;
45434;SDS011;31183;47.404;8.500;2023-11-19T01:24:28;2.17;;;1.67;;
45434;SDS011;31183;47.404;8.500;2023-11-19T01:26:57;2.55;;;1.83;;
45434;SDS011;31183;47.404;8.500;2023-11-19T01:29:26;2.30;;;1.95;;
45434;SDS011;31183;47.404;8.500;2023-11-19T01:31:52;2.53;;;2.00;;
45434;SDS011;31183;47.404;8.500;2023-11-19T01:34:19;3.20;;;2.20;;
45434;SDS011;31183;47.404;8.500;2023-11-19T01:36:46;3.75;;;1.70;;
45434;SDS011;31183;47.404;8.500;2023-11-19T01:39:15;2.17;;;1.60;;
45434;SDS011;31183;47.404;8.500;2023-11-19T01:41:46;2.08;;;1.63;;
45434;SDS011;31183;47.404;8.500;2023-11-19T01:44:12;2.40;;;2.10;;
45434;SDS011;31183;47.404;8.500;2023-11-19T01:46:42;2.75;;;2.00;;
45434;SDS011;31183;47.404;8.500;2023-11-19T01:49:11;3.13;;;2.33;;
45434;SDS011;31183;47.404;8.500;2023-11-19T01:51:40;3.17;;;1.95;;
45434;SDS011;31183;47.404;8.500;2023-11-19T01:54:08;2.65;;;1.95;;
45434;SDS011;31183;47.404;8.500;2023-11-19T01:56:35;3.38;;;2.28;;
45434;SDS011;31183;47.404;8.500;2023-11-19T01:59:03;2.72;;;1.80;;
45434;SDS011;31183;47.404;8.500;2023-11-19T02:01:30;2.35;;;2.10;;
45434;SDS011;31183;47.404;8.500;2023-11-19T02:03:58;2.28;;;1.90;;
45434;SDS011;31183;47.404;8.500;2023-11-19T02:06:26;4.15;;;2.10;;
45434;SDS011;31183;47.404;8.500;2023-11-19T02:08:54;5.53;;;2.00;;
45434;SDS011;31183;47.404;8.500;2023-11-19T02:11:21;3.83;;;2.08;;
45434;SDS011;31183;47.404;8.500;2023-11-19T02:13:47;2.97;;;2.30;;
45434;SDS011;31183;47.404;8.500;2023-11-19T02:16:14;2.45;;;1.77;;
45434;SDS011;31183;47.404;8.500;2023-11-19T02:18:41;3.85;;;1.80;;
45434;SDS011;31183;47.404;8.500;2023-11-19T02:21:07;1.70;;;1.50;;
45434;SDS011;31183;47.404;8.500;2023-11-19T02:23:36;2.63;;;2.10;;
45434;SDS011;31183;47.404;8.500;2023-11-19T02:26:14;1.98;;;1.75;;
45434;SDS011;31183;47.404;8.500;2023-11-19T02:28:48;2.17;;;1.70;;
45434;SDS011;31183;47.404;8.500;2023-11-19T02:31:16;2.17;;;1.77;;
45434;SDS011;31183;47.404;8.500;2023-11-19T02:33:43;3.92;;;2.17;;
45434;SDS011;31183;47.404;8.500;2023-11-19T02:36:09;2.90;;;1.80;;
45434;SDS011;31183;47.404;8.500;2023-11-19T02:38:36;2.50;;;2.22;;
45434;SDS011;31183;47.404;8.500;2023-11-19T02:41:03;3.50;;;2.42;;
45434;SDS011;31183;47.404;8.500;2023-11-19T02:43:32;2.30;;;2.08;;
45434;SDS011;31183;47.404;8.500;2023-11-19T02:46:00;3.72;;;2.38;;
45434;SDS011;31183;47.404;8.500;2023-11-19T02:48:27;2.92;;;2.58;;
45434;SDS011;31183;47.404;8.500;2023-11-19T02:50:54;4.97;;;3.20;;
45434;SDS011;31183;47.404;8.500;2023-11-19T02:53:21;3.85;;;2.78;;
45434;SDS011;31183;47.404;8.500;2023-11-19T02:55:48;7.03;;;3.38;;
45434;SDS011;31183;47.404;8.500;2023-11-19T02:58:16;4.97;;;3.05;;
45434;SDS011;31183;47.404;8.500;2023-11-19T03:00:46;3.10;;;2.58;;
45434;SDS011;31183;47.404;8.500;2023-11-19T03:03:28;4.22;;;2.85;;
45434;SDS011;31183;47.404;8.500;2023-11-19T03:05:57;3.95;;;3.55;;
45434;SDS011;31183;47.404;8.500;2023-11-19T03:08:24;4.50;;;2.90;;
45434;SDS011;31183;47.404;8.500;2023-11-19T03:10:50;4.43;;;3.03;;
45434;SDS011;31183;47.404;8.500;2023-11-19T03:13:17;2.60;;;2.38;;
45434;SDS011;31183;47.404;8.500;2023-11-19T03:15:44;2.85;;;2.55;;
45434;SDS011;31183;47.404;8.500;2023-11-19T03:18:12;3.97;;;3.03;;
45434;SDS011;31183;47.404;8.500;2023-11-19T03:20:38;3.72;;;3.00;;
45434;SDS011;31183;47.404;8.500;2023-11-19T03:23:05;2.80;;;2.50;;
45434;SDS011;31183;47.404;8.500;2023-11-19T03:25:32;7.40;;;3.38;;
45434;SDS011;31183;47.404;8.500;2023-11-19T03:28:00;5.72;;;2.92;;
45434;SDS011;31183;47.404;8.500;2023-11-19T03:30:28;3.13;;;2.83;;
45434;SDS011;31183;47.404;8.500;2023-11-19T03:32:58;2.53;;;2.30;;
45434;SDS011;31183;47.404;8.500;2023-11-19T03:35:29;2.92;;;2.58;;
45434;SDS011;31183;47.404;8.500;2023-11-19T03:37:56;4.32;;;2.53;;
45434;SDS011;31183;47.404;8.500;2023-11-19T03:40:23;3.40;;;2.78;;
45434;SDS011;31183;47.404;8.500;2023-11-19T03:42:51;2.75;;;2.55;;
45434;SDS011;31183;47.404;8.500;2023-11-19T03:45:17;2.67;;;2.20;;
45434;SDS011;31183;47.404;8.500;2023-11-19T03:47:44;3.42;;;2.50;;
45434;SDS011;31183;47.404;8.500;2023-11-19T03:50:11;3.20;;;2.33;;
45434;SDS011;31183;47.404;8.500;2023-11-19T03:52:37;3.83;;;2.63;;
45434;SDS011;31183;47.404;8.500;2023-11-19T03:55:07;3.53;;;2.55;;
45434;SDS011;31183;47.404;8.500;2023-11-19T03:57:35;3.53;;;2.00;;
45434;SDS011;31183;47.404;8.500;2023-11-19T04:00:02;2.40;;;2.17;;
45434;SDS011;31183;47.404;8.500;2023-11-19T04:02:40;2.63;;;2.10;;
45434;SDS011;31183;47.404;8.500;2023-11-19T04:05:07;2.72;;;2.15;;
45434;SDS011;31183;47.404;8.500;2023-11-19T04:07:34;3.92;;;2.10;;
45434;SDS011;31183;47.404;8.500;2023-11-19T04:10:00;2.58;;;1.60;;
45434;SDS011;31183;47.404;8.500;2023-11-19T04:12:28;2.95;;;1.73;;
45434;SDS011;31183;47.404;8.500;2023-11-19T04:14:55;2.85;;;1.60;;
45434;SDS011;31183;47.404;8.500;2023-11-19T04:17:25;2.05;;;1.65;;
45434;SDS011;31183;47.404;8.500;2023-11-19T04:19:51;2.30;;;1.63;;
45434;SDS011;31183;47.404;8.500;2023-11-19T04:22:18;1.73;;;1.60;;
45434;SDS011;31183;47.404;8.500;2023-11-19T04:24:45;3.85;;;1.90;;
45434;SDS011;31183;47.404;8.500;2023-11-19T04:27:12;1.77;;;1.50;;
45434;SDS011;31183;47.404;8.500;2023-11-19T04:29:39;1.90;;;1.50;;
45434;SDS011;31183;47.404;8.500;2023-11-19T04:32:06;4.18;;;1.80;;
45434;SDS011;31183;47.404;8.500;2023-11-19T04:34:33;3.03;;;1.95;;
45434;SDS011;31183;47.404;8.500;2023-11-19T04:37:00;2.78;;;1.90;;
45434;SDS011;31183;47.404;8.500;2023-11-19T04:39:38;3.45;;;1.77;;
45434;SDS011;31183;47.404;8.500;2023-11-19T04:42:05;2.17;;;1.98;;
45434;SDS011;31183;47.404;8.500;2023-11-19T04:44:32;5.68;;;2.50;;
45434;SDS011;31183;47.404;8.500;2023-11-19T04:46:59;2.13;;;1.83;;
45434;SDS011;31183;47.404;8.500;2023-11-19T04:49:26;2.95;;;1.77;;
45434;SDS011;31183;47.404;8.500;2023-11-19T04:51:53;1.85;;;1.65;;
45434;SDS011;31183;47.404;8.500;2023-11-19T04:54:20;1.77;;;1.58;;
45434;SDS011;31183;47.404;8.500;2023-11-19T04:56:47;2.22;;;1.75;;
45434;SDS011;31183;47.404;8.500;2023-11-19T04:59:14;1.58;;;1.48;;
45434;SDS011;31183;47.404;8.500;2023-11-19T05:01:41;3.22;;;2.25;;
45434;SDS011;31183;47.404;8.500;2023-11-19T05:04:12;2.83;;;1.70;;
45434;SDS011;31183;47.404;8.500;2023-11-19T05:06:39;2.67;;;2.08;;
45434;SDS011;31183;47.404;8.500;2023-11-19T05:09:05;4.10;;;2.08;;
45434;SDS011;31183;47.404;8.500;2023-11-19T05:11:35;2.65;;;1.90;;
45434;SDS011;31183;47.404;8.500;2023-11-19T05:14:02;2.97;;;1.90;;
45434;SDS011;31183;47.404;8.500;2023-11-19T05:16:32;2.28;;;1.77;;
45434;SDS011;31183;47.404;8.500;2023-11-19T05:18:59;2.10;;;1.85;;
45434;SDS011;31183;47.404;8.500;2023-11-19T05:21:26;1.90;;;1.80;;
45434;SDS011;31183;47.404;8.500;2023-11-19T05:23:53;2.90;;;2.00;;
45434;SDS011;31183;47.404;8.500;2023-11-19T05:26:20;3.40;;;1.88;;
45434;SDS011;31183;47.404;8.500;2023-11-19T05:28:48;2.60;;;1.70;;
45434;SDS011;31183;47.404;8.500;2023-11-19T05:31:15;2.25;;;1.35;;
45434;SDS011;31183;47.404;8.500;2023-11-19T05:33:43;2.70;;;1.77;;
45434;SDS011;31183;47.404;8.500;2023-11-19T05:36:11;3.00;;;1.65;;
45434;SDS011;31183;47.404;8.500;2023-11-19T05:38:38;2.65;;;1.40;;
45434;SDS011;31183;47.404;8.500;2023-11-19T05:41:05;1.92;;;1.70;;
45434;SDS011;31183;47.404;8.500;2023-11-19T05:43:32;5.40;;;1.77;;
45434;SDS011;31183;47.404;8.500;2023-11-19T05:45:59;2.40;;;2.08;;
45434;SDS011;31183;47.404;8.500;2023-11-19T05:48:27;2.58;;;2.00;;
45434;SDS011;31183;47.404;8.500;2023-11-19T05:50:55;2.35;;;2.15;;
45434;SDS011;31183;47.404;8.500;2023-11-19T05:53:22;2.22;;;1.80;;
45434;SDS011;31183;47.404;8.500;2023-11-19T05:55:48;2.33;;;1.80;;
45434;SDS011;31183;47.404;8.500;2023-11-19T05:58:24;2.13;;;1.90;;
45434;SDS011;31183;47.404;8.500;2023-11-19T06:00:52;1.75;;;1.50;;
45434;SDS011;31183;47.404;8.500;2023-11-19T06:03:19;2.55;;;1.50;;
45434;SDS011;31183;47.404;8.500;2023-11-19T06:05:48;2.45;;;1.88;;
45434;SDS011;31183;47.404;8.500;2023-11-19T06:08:15;1.80;;;1.70;;
45434;SDS011;31183;47.404;8.500;2023-11-19T06:10:43;1.83;;;1.42;;
45434;SDS011;31183;47.404;8.500;2023-11-19T06:13:12;2.20;;;1.60;;
45434;SDS011;31183;47.404;8.500;2023-11-19T06:15:41;2.17;;;1.77;;
45434;SDS011;31183;47.404;8.500;2023-11-19T06:18:08;2.53;;;1.40;;
45434;SDS011;31183;47.404;8.500;2023-11-19T06:20:36;1.30;;;1.20;;
45434;SDS011;31183;47.404;8.500;2023-11-19T06:23:06;3.28;;;1.52;;
45434;SDS011;31183;47.404;8.500;2023-11-19T06:25:32;1.80;;;1.40;;
45434;SDS011;31183;47.404;8.500;2023-11-19T06:28:01;1.40;;;1.30;;
45434;SDS011;31183;47.404;8.500;2023-11-19T06:30:28;1.50;;;1.40;;
45434;SDS011;31183;47.404;8.500;2023-11-19T06:32:56;3.78;;;1.65;;
45434;SDS011;31183;47.404;8.500;2023-11-19T06:35:22;1.67;;;1.25;;
45434;SDS011;31183;47.404;8.500;2023-11-19T06:37:49;1.60;;;1.30;;
45434;SDS011;31183;47.404;8.500;2023-11-19T06:40:16;1.70;;;1.25;;
45434;SDS011;31183;47.404;8.500;2023-11-19T06:42:42;2.17;;;1.58;;
45434;SDS011;31183;47.404;8.500;2023-11-19T06:45:09;2.80;;;1.95;;
45434;SDS011;31183;47.404;8.500;2023-11-19T06:47:36;3.65;;;1.15;;
45434;SDS011;31183;47.404;8.500;2023-11-19T06:50:02;2.85;;;1.30;;
45434;SDS011;31183;47.404;8.500;2023-11-19T06:52:31;1.83;;;1.30;;
45434;SDS011;31183;47.404;8.500;2023-11-19T06:54:58;2.38;;;1.30;;
45434;SDS011;31183;47.404;8.500;2023-11-19T06:57:28;2.28;;;1.70;;
45434;SDS011;31183;47.404;8.500;2023-11-19T06:59:55;2.35;;;1.52;;
45434;SDS011;31183;47.404;8.500;2023-11-19T07:02:23;1.65;;;1.40;;
45434;SDS011;31183;47.404;8.500;2023-11-19T07:04:53;2.95;;;1.30;;
45434;SDS011;31183;47.404;8.500;2023-11-19T07:07:20;1.20;;;1.10;;
45434;SDS011;31183;47.404;8.500;2023-11-19T07:09:47;2.28;;;1.52;;
45434;SDS011;31183;47.404;8.500;2023-11-19T07:12:14;2.83;;;1.15;;
45434;SDS011;31183;47.404;8.500;2023-11-19T07:14:41;3.38;;;1.08;;
45434;SDS011;31183;47.404;8.500;2023-11-19T07:17:08;1.48;;;1.38;;
45434;SDS011;31183;47.404;8.500;2023-11-19T07:19:36;2.50;;;1.30;;
45434;SDS011;31183;47.404;8.500;2023-11-19T07:22:04;1.42;;;0.90;;
45434;SDS011;31183;47.404;8.500;2023-11-19T07:24:32;1.52;;;1.30;;
45434;SDS011;31183;47.404;8.500;2023-11-19T07:26:58;1.73;;;1.10;;
45434;SDS011;31183;47.404;8.500;2023-11-19T07:29:25;3.72;;;1.40;;
45434;SDS011;31183;47.404;8.500;2023-11-19T07:31:55;1.57;;;1.17;;
45434;SDS011;31183;47.404;8.500;2023-11-19T07:34:23;1.60;;;1.40;;
45434;SDS011;31183;47.404;8.500;2023-11-19T07:36:50;0.93;;;0.93;;
45434;SDS011;31183;47.404;8.500;2023-11-19T07:39:18;2.47;;;0.95;;
45434;SDS011;31183;47.404;8.500;2023-11-19T07:41:44;0.88;;;0.85;;
45434;SDS011;31183;47.404;8.500;2023-11-19T07:44:11;2.00;;;1.10;;
45434;SDS011;31183;47.404;8.500;2023-11-19T07:46:38;1.48;;;1.10;;
45434;SDS011;31183;47.404;8.500;2023-11-19T07:49:04;2.03;;;1.15;;
45434;SDS011;31183;47.404;8.500;2023-11-19T07:51:31;1.65;;;1.05;;
45434;SDS011;31183;47.404;8.500;2023-11-19T07:53:58;1.45;;;1.35;;
45434;SDS011;31183;47.404;8.500;2023-11-19T07:56:24;1.35;;;1.00;;
45434;SDS011;31183;47.404;8.500;2023-11-19T07:58:51;1.63;;;1.52;;
45434;SDS011;31183;47.404;8.500;2023-11-19T08:01:18;2.38;;;1.10;;
45434;SDS011;31183;47.404;8.500;2023-11-19T08:03:45;1.08;;;0.90;;
45434;SDS011;31183;47.404;8.500;2023-11-19T08:06:15;2.08;;;1.00;;
45434;SDS011;31183;47.404;8.500;2023-11-19T08:08:41;1.73;;;1.10;;
45434;SDS011;31183;47.404;8.500;2023-11-19T08:11:09;2.28;;;1.30;;
45434;SDS011;31183;47.404;8.500;2023-11-19T08:13:35;1.40;;;0.98;;
45434;SDS011;31183;47.404;8.500;2023-11-19T08:16:02;1.58;;;1.13;;
45434;SDS011;31183;47.404;8.500;2023-11-19T08:18:29;2.55;;;0.90;;
45434;SDS011;31183;47.404;8.500;2023-11-19T08:20:55;1.60;;;1.20;;
45434;SDS011;31183;47.404;8.500;2023-11-19T08:23:24;5.63;;;1.55;;
45434;SDS011;31183;47.404;8.500;2023-11-19T08:25:51;1.60;;;1.08;;
45434;SDS011;31183;47.404;8.500;2023-11-19T08:28:18;2.83;;;1.40;;
45434;SDS011;31183;47.404;8.500;2023-11-19T08:30:45;1.20;;;1.10;;
45434;SDS011;31183;47.404;8.500;2023-11-19T08:33:12;1.30;;;1.17;;
45434;SDS011;31183;47.404;8.500;2023-11-19T08:35:39;3.90;;;1.20;;
45434;SDS011;31183;47.404;8.500;2023-11-19T08:38:05;2.60;;;1.23;;
45434;SDS011;31183;47.404;8.500;2023-11-19T08:40:33;1.35;;;1.20;;
45434;SDS011;31183;47.404;8.500;2023-11-19T08:42:59;1.00;;;0.90;;
45434;SDS011;31183;47.404;8.500;2023-11-19T08:45:26;1.05;;;0.82;;
45434;SDS011;31183;47.404;8.500;2023-11-19T08:47:53;1.52;;;1.10;;
45434;SDS011;31183;47.404;8.500;2023-11-19T08:50:20;1.50;;;1.00;;
45434;SDS011;31183;47.404;8.500;2023-11-19T08:52:46;2.63;;;1.08;;
45434;SDS011;31183;47.404;8.500;2023-11-19T08:55:13;2.95;;;1.42;;
45434;SDS011;31183;47.404;8.500;2023-11-19T08:57:40;2.58;;;1.75;;
45434;SDS011;31183;47.404;8.500;2023-11-19T09:00:07;2.88;;;1.70;;
45434;SDS011;31183;47.404;8.500;2023-11-19T09:02:35;2.22;;;1.42;;
45434;SDS011;31183;47.404;8.500;2023-11-19T09:05:04;2.60;;;1.33;;
45434;SDS011;31183;47.404;8.500;2023-11-19T09:07:31;1.98;;;1.30;;
45434;SDS011;31183;47.404;8.500;2023-11-19T09:09:58;2.63;;;1.63;;
45434;SDS011;31183;47.404;8.500;2023-11-19T09:12:25;1.65;;;1.30;;
45434;SDS011;31183;47.404;8.500;2023-11-19T09:14:51;2.08;;;1.23;;
45434;SDS011;31183;47.404;8.500;2023-11-19T09:17:18;2.70;;;1.40;;
45434;SDS011;31183;47.404;8.500;2023-11-19T09:19:45;2.13;;;1.15;;
45434;SDS011;31183;47.404;8.500;2023-11-19T09:22:11;1.90;;;1.30;;
45434;SDS011;31183;47.404;8.500;2023-11-19T09:24:38;2.10;;;1.13;;
45434;SDS011;31183;47.404;8.500;2023-11-19T09:27:05;1.92;;;1.30;;
45434;SDS011;31183;47.404;8.500;2023-11-19T09:29:32;1.65;;;1.30;;
45434;SDS011;31183;47.404;8.500;2023-11-19T09:31:59;1.98;;;1.30;;
45434;SDS011;31183;47.404;8.500;2023-11-19T09:34:25;2.50;;;2.05;;
45434;SDS011;31183;47.404;8.500;2023-11-19T09:36:52;2.28;;;1.52;;
45434;SDS011;31183;47.404;8.500;2023-11-19T09:39:19;1.67;;;1.35;;
45434;SDS011;31183;47.404;8.500;2023-11-19T09:41:46;1.88;;;1.58;;
45434;SDS011;31183;47.404;8.500;2023-11-19T09:44:13;1.73;;;1.10;;
45434;SDS011;31183;47.404;8.500;2023-11-19T09:46:44;1.83;;;1.25;;
45434;SDS011;31183;47.404;8.500;2023-11-19T09:49:12;1.65;;;1.50;;
45434;SDS011;31183;47.404;8.500;2023-11-19T09:51:40;2.05;;;1.70;;
45434;SDS011;31183;47.404;8.500;2023-11-19T09:54:07;4.00;;;1.77;;
45434;SDS011;31183;47.404;8.500;2023-11-19T09:56:35;2.90;;;1.70;;
45434;SDS011;31183;47.404;8.500;2023-11-19T09:59:04;1.92;;;1.40;;
45434;SDS011;31183;47.404;8.500;2023-11-19T10:01:31;4.63;;;1.80;;
45434;SDS011;31183;47.404;8.500;2023-11-19T10:03:58;2.65;;;1.60;;
45434;SDS011;31183;47.404;8.500;2023-11-19T10:06:26;4.00;;;1.90;;
45434;SDS011;31183;47.404;8.500;2023-11-19T10:08:53;3.08;;;2.13;;
45434;SDS011;31183;47.404;8.500;2023-11-19T10:11:21;4.93;;;1.75;;
45434;SDS011;31183;47.404;8.500;2023-11-19T10:13:48;5.53;;;1.63;;
45434;SDS011;31183;47.404;8.500;2023-11-19T10:16:15;2.53;;;1.80;;
45434;SDS011;31183;47.404;8.500;2023-11-19T10:18:47;2.47;;;1.48;;
45434;SDS011;31183;47.404;8.500;2023-11-19T10:21:19;1.98;;;1.45;;
45434;SDS011;31183;47.404;8.500;2023-11-19T10:23:49;2.38;;;1.77;;
45434;SDS011;31183;47.404;8.500;2023-11-19T10:26:18;5.38;;;1.90;;
45434;SDS011;31183;47.404;8.500;2023-11-19T10:28:49;4.90;;;2.22;;
45434;SDS011;31183;47.404;8.500;2023-11-19T10:31:16;2.65;;;1.65;;
45434;SDS011;31183;47.404;8.500;2023-11-19T10:33:44;1.95;;;1.70;;
45434;SDS011;31183;47.404;8.500;2023-11-19T10:36:12;2.47;;;2.17;;
45434;SDS011;31183;47.404;8.500;2023-11-19T10:38:39;3.10;;;2.15;;
45434;SDS011;31183;47.404;8.500;2023-11-19T10:41:07;3.55;;;1.90;;
45434;SDS011;31183;47.404;8.500;2023-11-19T10:43:43;3.58;;;1.70;;
45434;SDS011;31183;47.404;8.500;2023-11-19T10:46:13;3.58;;;1.70;;
45434;SDS011;31183;47.404;8.500;2023-11-19T10:48:41;2.17;;;1.33;;
45434;SDS011;31183;47.404;8.500;2023-11-19T10:51:07;1.77;;;1.67;;
45434;SDS011;31183;47.404;8.500;2023-11-19T10:53:35;3.90;;;2.03;;
45434;SDS011;31183;47.404;8.500;2023-11-19T10:56:06;1.90;;;1.70;;
45434;SDS011;31183;47.404;8.500;2023-11-19T10:58:37;2.13;;;1.55;;
45434;SDS011;31183;47.404;8.500;2023-11-19T11:01:09;2.95;;;2.08;;
45434;SDS011;31183;47.404;8.500;2023-11-19T11:03:42;2.45;;;1.58;;
45434;SDS011;31183;47.404;8.500;2023-11-19T11:06:12;1.85;;;1.50;;
45434;SDS011;31183;47.404;8.500;2023-11-19T11:08:39;3.92;;;2.35;;
45434;SDS011;31183;47.404;8.500;2023-11-19T11:11:07;3.35;;;1.55;;
45434;SDS011;31183;47.404;8.500;2023-11-19T11:13:34;1.70;;;1.60;;
45434;SDS011;31183;47.404;8.500;2023-11-19T11:16:03;1.60;;;1.50;;
45434;SDS011;31183;47.404;8.500;2023-11-19T11:18:32;3.63;;;1.60;;
45434;SDS011;31183;47.404;8.500;2023-11-19T11:21:04;1.60;;;1.50;;
45434;SDS011;31183;47.404;8.500;2023-11-19T11:23:56;2.50;;;1.38;;
45434;SDS011;31183;47.404;8.500;2023-11-19T11:26:48;2.40;;;1.70;;
45434;SDS011;31183;47.404;8.500;2023-11-19T11:32:16;2.97;;;1.50;;
45434;SDS011;31183;47.404;8.500;2023-11-19T11:38:07;3.65;;;1.40;;
45434;SDS011;31183;47.404;8.500;2023-11-19T11:40:34;2.83;;;1.50;;
45434;SDS011;31183;47.404;8.500;2023-11-19T11:43:02;1.48;;;1.38;;
45434;SDS011;31183;47.404;8.500;2023-11-19T11:45:38;1.75;;;1.30;;
45434;SDS011;31183;47.404;8.500;2023-11-19T11:48:10;1.58;;;1.45;;
45434;SDS011;31183;47.404;8.500;2023-11-19T11:50:55;1.73;;;1.63;;
45434;SDS011;31183;47.404;8.500;2023-11-19T11:53:24;4.70;;;2.22;;
45434;SDS011;31183;47.404;8.500;2023-11-19T11:55:52;2.22;;;1.70;;
45434;SDS011;31183;47.404;8.500;2023-11-19T11:58:25;4.18;;;2.10;;
45434;SDS011;31183;47.404;8.500;2023-11-19T12:00:57;3.50;;;3.05;;
45434;SDS011;31183;47.404;8.500;2023-11-19T12:03:26;3.70;;;2.33;;
45434;SDS011;31183;47.404;8.500;2023-11-19T12:05:55;12.20;;;7.30;;
45434;SDS011;31183;47.404;8.500;2023-11-19T12:08:24;3.97;;;2.40;;
45434;SDS011;31183;47.404;8.500;2023-11-19T12:10:54;1.95;;;1.75;;
45434;SDS011;31183;47.404;8.500;2023-11-19T12:13:25;1.63;;;1.30;;
45434;SDS011;31183;47.404;8.500;2023-11-19T12:16:09;2.33;;;1.63;;
45434;SDS011;31183;47.404;8.500;2023-11-19T12:18:38;1.67;;;1.40;;
45434;SDS011;31183;47.404;8.500;2023-11-19T12:21:06;4.40;;;1.42;;
45434;SDS011;31183;47.404;8.500;2023-11-19T12:23:35;1.52;;;1.30;;
45434;SDS011;31183;47.404;8.500;2023-11-19T12:26:20;1.75;;;1.35;;
45434;SDS011;31183;47.404;8.500;2023-11-19T12:28:58;3.17;;;1.88;;
45434;SDS011;31183;47.404;8.500;2023-11-19T12:31:25;1.88;;;1.30;;
45434;SDS011;31183;47.404;8.500;2023-11-19T12:33:52;1.90;;;1.40;;
45434;SDS011;31183;47.404;8.500;2023-11-19T12:36:19;1.92;;;1.27;;
45434;SDS011;31183;47.404;8.500;2023-11-19T12:38:46;1.60;;;1.30;;
45434;SDS011;31183;47.404;8.500;2023-11-19T12:41:13;2.00;;;1.80;;
45434;SDS011;31183;47.404;8.500;2023-11-19T12:43:43;2.72;;;1.38;;
45434;SDS011;31183;47.404;8.500;2023-11-19T12:46:16;2.45;;;1.73;;
45434;SDS011;31183;47.404;8.500;2023-11-19T12:48:43;3.58;;;1.63;;
45434;SDS011;31183;47.404;8.500;2023-11-19T12:51:10;3.63;;;1.60;;
45434;SDS011;31183;47.404;8.500;2023-11-19T12:53:49;4.00;;;2.05;;
45434;SDS011;31183;47.404;8.500;2023-11-19T12:56:24;2.83;;;1.80;;
45434;SDS011;31183;47.404;8.500;2023-11-19T12:58:51;2.80;;;1.90;;
45434;SDS011;31183;47.404;8.500;2023-11-19T13:01:18;3.15;;;1.75;;
45434;SDS011;31183;47.404;8.500;2023-11-19T13:03:47;3.40;;;1.42;;
45434;SDS011;31183;47.404;8.500;2023-11-19T13:06:17;1.73;;;1.52;;
45434;SDS011;31183;47.404;8.500;2023-11-19T13:08:47;3.85;;;2.00;;
45434;SDS011;31183;47.404;8.500;2023-11-19T13:11:30;3.28;;;1.60;;
45434;SDS011;31183;47.404;8.500;2023-11-19T13:13:59;3.17;;;1.58;;
45434;SDS011;31183;47.404;8.500;2023-11-19T13:16:27;2.30;;;1.90;;
45434;SDS011;31183;47.404;8.500;2023-11-19T13:18:54;1.65;;;1.55;;
45434;SDS011;31183;47.404;8.500;2023-11-19T13:21:21;2.83;;;1.30;;
45434;SDS011;31183;47.404;8.500;2023-11-19T13:23:48;2.95;;;1.85;;
45434;SDS011;31183;47.404;8.500;2023-11-19T13:26:14;2.90;;;1.35;;
45434;SDS011;31183;47.404;8.500;2023-11-19T13:28:41;3.50;;;1.73;;
45434;SDS011;31183;47.404;8.500;2023-11-19T13:31:08;2.10;;;1.90;;
45434;SDS011;31183;47.404;8.500;2023-11-19T13:33:36;1.77;;;1.33;;
45434;SDS011;31183;47.404;8.500;2023-11-19T13:36:04;1.50;;;1.40;;
45434;SDS011;31183;47.404;8.500;2023-11-19T13:38:34;2.72;;;1.35;;
45434;SDS011;31183;47.404;8.500;2023-11-19T13:41:04;1.73;;;1.60;;
45434;SDS011;31183;47.404;8.500;2023-11-19T13:43:31;2.17;;;1.50;;
45434;SDS011;31183;47.404;8.500;2023-11-19T13:45:58;1.95;;;1.70;;
45434;SDS011;31183;47.404;8.500;2023-11-19T13:48:25;2.80;;;1.52;;
45434;SDS011;31183;47.404;8.500;2023-11-19T13:50:53;3.05;;;1.50;;
45434;SDS011;31183;47.404;8.500;2023-11-19T13:53:20;2.47;;;1.60;;
45434;SDS011;31183;47.404;8.500;2023-11-19T13:55:47;1.77;;;1.40;;
45434;SDS011;31183;47.404;8.500;2023-11-19T13:58:14;1.35;;;1.25;;
45434;SDS011;31183;47.404;8.500;2023-11-19T14:00:40;2.15;;;1.00;;
45434;SDS011;31183;47.404;8.500;2023-11-19T14:03:09;1.42;;;1.00;;
45434;SDS011;31183;47.404;8.500;2023-11-19T14:05:37;2.78;;;1.65;;
45434;SDS011;31183;47.404;8.500;2023-11-19T14:08:04;1.95;;;1.50;;
45434;SDS011;31183;47.404;8.500;2023-11-19T14:10:50;1.50;;;1.40;;
45434;SDS011;31183;47.404;8.500;2023-11-19T14:13:17;2.50;;;1.80;;
45434;SDS011;31183;47.404;8.500;2023-11-19T14:15:44;1.95;;;1.75;;
45434;SDS011;31183;47.404;8.500;2023-11-19T14:18:15;1.15;;;1.05;;
45434;SDS011;31183;47.404;8.500;2023-11-19T14:20:41;2.05;;;1.00;;
45434;SDS011;31183;47.404;8.500;2023-11-19T14:23:08;1.83;;;1.42;;
45434;SDS011;31183;47.404;8.500;2023-11-19T14:25:35;1.55;;;1.20;;
45434;SDS011;31183;47.404;8.500;2023-11-19T14:28:02;2.42;;;1.80;;
45434;SDS011;31183;47.404;8.500;2023-11-19T14:30:31;2.38;;;1.45;;
45434;SDS011;31183;47.404;8.500;2023-11-19T14:32:58;1.33;;;1.23;;
45434;SDS011;31183;47.404;8.500;2023-11-19T14:35:25;2.05;;;1.33;;
45434;SDS011;31183;47.404;8.500;2023-11-19T14:37:52;2.15;;;1.17;;
45434;SDS011;31183;47.404;8.500;2023-11-19T14:40:19;1.23;;;1.13;;
45434;SDS011;31183;47.404;8.500;2023-11-19T14:42:45;2.22;;;1.25;;
45434;SDS011;31183;47.404;8.500;2023-11-19T14:45:12;2.53;;;1.10;;
45434;SDS011;31183;47.404;8.500;2023-11-19T14:47:39;2.85;;;1.20;;
45434;SDS011;31183;47.404;8.500;2023-11-19T14:50:06;3.08;;;1.17;;
45434;SDS011;31183;47.404;8.500;2023-11-19T14:52:35;1.55;;;1.00;;
45434;SDS011;31183;47.404;8.500;2023-11-19T14:55:03;1.10;;;0.95;;
45434;SDS011;31183;47.404;8.500;2023-11-19T14:57:30;1.20;;;1.00;;
45434;SDS011;31183;47.404;8.500;2023-11-19T14:59:56;1.30;;;1.08;;